CYQZ

Quesnel Airport

Quesnel, British Columbia, Canada
METAR CYQZ 100700Z AUTO 15006KT 9SM OVC075 03/M03 A2992 RMK SLP155
Observed Flight Rules
Dec-10 @ 07:00 UTC (30 minutes ago) Visual Flight Rules
Wind Visibility Clouds
150° at 6 knots 9 miles
  • Overcast at 7,500' AGL
Temperatures Readings
Current 3°C / 37°F
Dewpoint -3°C / 27°F
Humidity 65%
Altimeter 29.92" Hg
Pressure 1015.5 hPa
Elevation 545
METAR CYQZ 100700Z AUTO 15006KT 9SM OVC075 03/M03 A2992 RMK SLP155
Observed Flight Rules
Dec-10 @ 07:00 UTC
(30 minutes ago)
VFR
Wind Visibility
150° at 6 knots 9 miles
Clouds
  • Overcast at 7,500' AGL
Temperature Dewpoint
3°C / 37°F -3°C / 27°F
Humidity Altimeter Pressure
65% 29.92" Hg 1015.5 hPa